createdAt,value
2018-12-14T00:01:36.320Z,1.20
2018-12-14T00:04:41.430Z,1.10
2018-12-14T00:07:46.458Z,1.10
2018-12-14T00:10:49.479Z,1.10
2018-12-14T00:13:52.524Z,1.10
2018-12-14T00:16:55.635Z,1.20
2018-12-14T00:19:58.643Z,1.20
2018-12-14T00:23:01.754Z,1.30
2018-12-14T00:26:04.746Z,1.40
2018-12-14T00:29:07.773Z,1.50
2018-12-14T00:32:11.002Z,1.40
2018-12-14T00:35:14.241Z,1.30
2018-12-14T00:38:17.354Z,1.30
2018-12-14T00:41:20.359Z,1.30
2018-12-14T00:44:23.462Z,1.30
2018-12-14T00:47:26.455Z,1.30
2018-12-14T00:50:29.481Z,1.30
2018-12-14T00:53:32.486Z,1.30
2018-12-14T00:56:35.524Z,1.30
2018-12-14T00:59:38.549Z,1.20
2018-12-14T01:02:41.578Z,1.20
2018-12-14T01:05:44.711Z,1.20
2018-12-14T01:08:47.811Z,1.20
2018-12-14T01:11:50.790Z,1.20
2018-12-14T01:14:53.818Z,1.20
2018-12-14T01:17:56.807Z,1.20
2018-12-14T01:20:59.835Z,1.20
2018-12-14T01:24:02.826Z,1.20
2018-12-14T01:27:05.839Z,1.20
2018-12-14T01:30:08.980Z,1.20
2018-12-14T01:33:12.086Z,1.20
2018-12-14T01:36:15.115Z,1.10
2018-12-14T01:39:18.175Z,1.10
2018-12-14T01:42:21.167Z,1.10
2018-12-14T01:45:24.199Z,1.20
2018-12-14T01:48:27.191Z,1.20
2018-12-14T01:51:30.414Z,1.10
2018-12-14T01:54:33.406Z,1.10
2018-12-14T01:57:36.648Z,1.10
2018-12-14T02:00:39.671Z,1.10
2018-12-14T02:03:42.654Z,1.00
2018-12-14T02:06:45.739Z,1.00
2018-12-14T02:09:48.864Z,1.00
2018-12-14T02:12:52.115Z,1.00
2018-12-14T02:15:55.113Z,1.00
2018-12-14T02:18:58.123Z,1.00
2018-12-14T02:22:01.111Z,1.00
2018-12-14T02:25:04.294Z,0.90
2018-12-14T02:28:07.300Z,0.90
2018-12-14T02:31:10.303Z,0.90
2018-12-14T02:34:13.303Z,0.90
2018-12-14T02:37:16.317Z,0.90
2018-12-14T02:40:19.351Z,0.90
2018-12-14T02:43:23.279Z,0.90
2018-12-14T02:46:26.298Z,0.80
2018-12-14T02:49:29.283Z,0.90
2018-12-14T02:52:32.274Z,0.90
2018-12-14T02:55:35.267Z,1.00
2018-12-14T02:58:38.261Z,0.90
2018-12-14T03:01:41.281Z,0.90
2018-12-14T03:04:44.290Z,0.80
2018-12-14T03:07:47.282Z,0.90
2018-12-14T03:10:50.271Z,0.90
2018-12-14T03:13:53.264Z,0.80
2018-12-14T03:16:56.610Z,0.80
2018-12-14T03:19:59.621Z,0.80
2018-12-14T03:23:02.636Z,0.80
2018-12-14T03:26:05.778Z,0.80
2018-12-14T03:29:08.771Z,0.80
2018-12-14T03:32:11.757Z,0.80
2018-12-14T03:35:14.761Z,0.80
2018-12-14T03:38:17.745Z,0.70
2018-12-14T03:41:20.783Z,0.70
2018-12-14T03:44:23.784Z,0.70
2018-12-14T03:47:26.731Z,0.70
2018-12-14T03:50:29.986Z,0.70
2018-12-14T03:53:32.903Z,0.70
2018-12-14T03:56:35.821Z,0.70
2018-12-14T03:59:38.745Z,0.70
2018-12-14T04:02:41.673Z,0.70
2018-12-14T04:05:44.764Z,0.60
2018-12-14T04:08:47.722Z,0.60
2018-12-14T04:11:53.629Z,0.60
2018-12-14T04:14:56.553Z,0.70
2018-12-14T04:17:59.481Z,0.70
2018-12-14T04:21:02.455Z,0.70
2018-12-14T04:24:05.382Z,0.60
2018-12-14T04:27:08.354Z,0.70
2018-12-14T04:30:11.291Z,0.70
2018-12-14T04:33:15.221Z,0.70
2018-12-14T04:36:18.141Z,0.70
2018-12-14T04:39:23.123Z,0.70
2018-12-14T04:42:26.291Z,0.70
2018-12-14T04:45:29.337Z,0.60
2018-12-14T04:48:32.261Z,0.60
2018-12-14T04:51:35.213Z,0.60
2018-12-14T04:54:38.143Z,0.60
2018-12-14T04:57:41.183Z,0.50
2018-12-14T05:00:44.102Z,0.50
2018-12-14T05:03:47.198Z,0.50
2018-12-14T05:06:50.122Z,0.50
2018-12-14T05:09:53.106Z,0.50
2018-12-14T05:12:56.387Z,0.50
2018-12-14T05:15:59.503Z,0.50
2018-12-14T05:19:02.439Z,0.50
2018-12-14T05:22:05.645Z,0.50
2018-12-14T05:25:08.574Z,0.50
2018-12-14T05:28:11.585Z,0.50
2018-12-14T05:31:14.529Z,0.50
2018-12-14T05:34:17.598Z,0.40
2018-12-14T05:37:20.653Z,0.50
2018-12-14T05:40:23.621Z,0.50
2018-12-14T05:43:26.550Z,0.50
2018-12-14T05:46:29.694Z,0.50
2018-12-14T05:49:32.618Z,0.50
2018-12-14T05:52:37.609Z,0.50
2018-12-14T05:55:40.598Z,0.50
2018-12-14T05:58:43.637Z,0.50
2018-12-14T06:01:46.578Z,0.50
2018-12-14T06:04:49.537Z,0.40
2018-12-14T06:07:52.462Z,0.40
2018-12-14T06:10:55.566Z,0.40
2018-12-14T06:13:58.531Z,0.40
2018-12-14T06:17:01.670Z,0.40
2018-12-14T06:20:05.238Z,0.30
2018-12-14T06:23:08.353Z,0.30
2018-12-14T06:26:11.314Z,0.40
2018-12-14T06:29:14.422Z,0.30
2018-12-14T06:32:17.342Z,0.30
2018-12-14T06:35:20.302Z,0.40
2018-12-14T06:38:23.267Z,0.40
2018-12-14T06:41:26.489Z,0.40
2018-12-14T06:44:29.449Z,0.30
2018-12-14T06:47:32.653Z,0.30
2018-12-14T06:50:35.658Z,0.30
2018-12-14T06:53:38.646Z,0.30
2018-12-14T06:56:41.586Z,0.30
2018-12-14T06:59:44.775Z,0.20
2018-12-14T07:02:47.701Z,0.30
2018-12-14T07:05:50.854Z,0.20
2018-12-14T07:08:53.789Z,0.20
2018-12-14T07:11:56.755Z,0.20
2018-12-14T07:14:59.834Z,0.20
2018-12-14T07:18:03.054Z,0.20
2018-12-14T07:21:06.088Z,0.20
2018-12-14T07:24:09.281Z,0.10
2018-12-14T07:27:12.210Z,0.10
2018-12-14T07:30:15.393Z,0.20
2018-12-14T07:33:18.326Z,0.20
2018-12-14T07:36:21.297Z,0.10
2018-12-14T07:39:24.215Z,0.20
2018-12-14T07:42:27.338Z,0.20
2018-12-14T07:45:30.287Z,0.20
2018-12-14T07:48:33.258Z,0.10
2018-12-14T07:51:36.370Z,0.20
2018-12-14T07:54:39.414Z,0.20
2018-12-14T07:57:42.333Z,0.20
2018-12-14T08:00:45.331Z,0.20
2018-12-14T08:03:48.410Z,0.30
2018-12-14T08:06:51.471Z,0.20
2018-12-14T08:09:54.402Z,0.40
2018-12-14T08:12:57.941Z,0.30
2018-12-14T08:16:00.870Z,0.30
2018-12-14T08:19:03.825Z,0.30
2018-12-14T08:22:06.772Z,0.40
2018-12-14T08:25:09.697Z,0.40
2018-12-14T08:28:12.613Z,0.40
2018-12-14T08:31:15.563Z,0.40
2018-12-14T08:34:18.493Z,0.50
2018-12-14T08:37:21.418Z,0.40
2018-12-14T08:40:24.384Z,0.50
2018-12-14T08:43:27.302Z,0.50
2018-12-14T08:46:30.221Z,0.60
2018-12-14T08:49:33.141Z,0.60
2018-12-14T08:52:36.060Z,0.60
2018-12-14T08:55:38.973Z,0.50
2018-12-14T08:58:41.976Z,0.60
2018-12-14T09:01:44.929Z,0.60
2018-12-14T09:04:47.850Z,0.60
2018-12-14T09:07:50.765Z,0.60
2018-12-14T09:10:53.751Z,0.60
2018-12-14T09:13:56.661Z,0.60
2018-12-14T09:16:59.732Z,0.60
2018-12-14T09:20:02.821Z,0.60
2018-12-14T09:23:06.029Z,0.70
2018-12-14T09:26:09.286Z,0.70
2018-12-14T09:29:12.458Z,0.70
2018-12-14T09:32:15.553Z,0.70
2018-12-14T09:35:18.526Z,0.70
2018-12-14T09:38:21.715Z,0.70
2018-12-14T09:41:24.737Z,0.80
2018-12-14T09:44:27.851Z,0.80
2018-12-14T09:47:30.863Z,0.80
2018-12-14T09:50:33.875Z,0.90
2018-12-14T09:53:36.894Z,0.80
2018-12-14T09:56:40.091Z,0.80
2018-12-14T09:59:43.167Z,0.90
2018-12-14T10:02:46.155Z,0.90
2018-12-14T10:05:49.183Z,1.00
2018-12-14T10:08:52.177Z,1.00
2018-12-14T10:11:55.604Z,1.00
2018-12-14T10:14:59.038Z,1.00
2018-12-14T10:18:02.374Z,1.00
2018-12-14T10:21:06.472Z,1.00
2018-12-14T10:24:09.459Z,0.90
2018-12-14T10:27:12.707Z,1.00
2018-12-14T10:30:15.859Z,1.10
2018-12-14T10:33:18.957Z,1.00
2018-12-14T10:36:21.951Z,1.10
2018-12-14T10:39:25.067Z,1.10
2018-12-14T10:42:28.067Z,1.10
2018-12-14T10:45:31.547Z,1.10
2018-12-14T10:48:34.535Z,1.20
2018-12-14T10:51:37.807Z,1.20
2018-12-14T10:54:41.143Z,1.20
2018-12-14T10:57:44.315Z,1.20
2018-12-14T11:00:53.784Z,1.20
2018-12-14T11:03:56.799Z,1.20
2018-12-14T11:06:59.846Z,1.30
2018-12-14T11:10:02.911Z,1.30
2018-12-14T11:13:07.067Z,1.30
2018-12-14T11:16:10.055Z,1.30
2018-12-14T11:19:13.071Z,1.40
2018-12-14T11:22:16.064Z,1.40
2018-12-14T11:25:19.179Z,1.40
2018-12-14T11:28:22.155Z,1.40
2018-12-14T11:31:25.175Z,1.40
2018-12-14T11:34:29.788Z,1.50
2018-12-14T11:37:33.272Z,1.50
2018-12-14T11:40:36.293Z,1.50
2018-12-14T11:43:39.408Z,1.50
2018-12-14T11:46:42.397Z,1.60
2018-12-14T11:49:45.527Z,1.60
2018-12-14T11:52:48.535Z,1.60
2018-12-14T11:55:51.579Z,1.60
2018-12-14T11:58:54.575Z,1.50
2018-12-14T12:01:57.691Z,1.40
2018-12-14T12:05:00.679Z,1.50
2018-12-14T12:08:03.759Z,1.40
2018-12-14T12:11:06.763Z,1.40
2018-12-14T12:14:09.792Z,1.30
2018-12-14T12:17:12.792Z,1.40
2018-12-14T12:20:15.842Z,1.30
2018-12-14T12:23:18.859Z,1.30
2018-12-14T12:26:21.979Z,1.30
2018-12-14T12:29:24.979Z,1.30
2018-12-14T12:32:28.169Z,1.30
2018-12-14T12:35:31.172Z,1.20
2018-12-14T12:38:38.160Z,1.30
2018-12-14T12:41:39.239Z,1.30
2018-12-14T12:44:42.280Z,1.30
2018-12-14T12:47:45.280Z,1.30
2018-12-14T12:50:49.622Z,1.20
2018-12-14T12:53:52.632Z,1.10
2018-12-14T12:56:55.715Z,1.10
2018-12-14T12:59:58.723Z,1.10
2018-12-14T13:03:01.762Z,1.20
2018-12-14T13:06:04.775Z,1.20
2018-12-14T13:09:08.036Z,1.20
2018-12-14T13:12:12.210Z,1.10
2018-12-14T13:15:15.327Z,1.00
2018-12-14T13:18:18.320Z,1.10
2018-12-14T13:21:21.335Z,1.20
2018-12-14T13:24:24.339Z,1.30
2018-12-14T13:27:28.191Z,1.40
2018-12-14T13:30:31.243Z,1.30
2018-12-14T13:33:34.414Z,1.20
2018-12-14T13:36:37.506Z,1.30
2018-12-14T13:39:40.828Z,1.30
2018-12-14T13:42:44.353Z,1.40
2018-12-14T13:45:47.571Z,1.40
2018-12-14T13:48:50.636Z,1.30
2018-12-14T13:51:53.659Z,1.40
2018-12-14T13:54:56.661Z,1.30
2018-12-14T13:57:59.664Z,1.30
2018-12-14T14:01:02.742Z,1.20
2018-12-14T14:04:05.758Z,1.10
2018-12-14T14:07:08.758Z,1.10
2018-12-14T14:10:11.910Z,1.10
2018-12-14T14:13:14.907Z,1.10
2018-12-14T14:16:17.906Z,1.10
2018-12-14T14:19:21.655Z,1.10
2018-12-14T14:22:24.903Z,1.10
2018-12-14T14:25:28.266Z,1.10
2018-12-14T14:28:31.298Z,1.00
2018-12-14T14:31:40.858Z,1.00
2018-12-14T14:34:44.768Z,1.00
2018-12-14T14:37:47.759Z,1.00
2018-12-14T14:40:50.795Z,1.00
2018-12-14T14:43:53.838Z,0.90
2018-12-14T14:46:56.847Z,0.90
2018-12-14T14:49:59.868Z,0.90
2018-12-14T14:53:02.862Z,0.90
2018-12-14T14:56:05.915Z,0.90
2018-12-14T14:59:08.981Z,0.90
2018-12-14T15:02:11.995Z,0.80
2018-12-14T15:05:14.999Z,0.80
2018-12-14T15:08:18.003Z,0.70
2018-12-14T15:11:21.033Z,0.70
2018-12-14T15:14:24.031Z,0.70
2018-12-14T15:17:27.023Z,0.70
2018-12-14T15:20:31.048Z,0.70
2018-12-14T15:23:34.134Z,0.60
2018-12-14T15:26:37.156Z,0.60
2018-12-14T15:29:40.154Z,0.60
2018-12-14T15:32:43.302Z,0.60
2018-12-14T15:35:46.287Z,0.60
2018-12-14T15:38:49.282Z,0.60
2018-12-14T15:41:52.294Z,0.60
2018-12-14T15:44:55.287Z,0.60
2018-12-14T15:47:58.265Z,0.70
2018-12-14T15:51:01.214Z,0.70
2018-12-14T15:54:04.146Z,0.70
2018-12-14T15:57:08.258Z,0.70
2018-12-14T16:00:11.453Z,0.70
2018-12-14T16:03:14.393Z,0.70
2018-12-14T16:06:17.463Z,0.70
2018-12-14T16:09:21.075Z,0.60
2018-12-14T16:12:24.141Z,0.60
2018-12-14T16:15:27.136Z,0.50
2018-12-14T16:18:30.068Z,0.60
2018-12-14T16:21:33.015Z,0.60
2018-12-14T16:24:35.954Z,0.60
2018-12-14T16:27:39.199Z,0.70
2018-12-14T16:30:42.109Z,0.60
2018-12-14T16:33:45.046Z,0.60
2018-12-14T16:36:47.974Z,0.60
2018-12-14T16:39:51.010Z,0.60
2018-12-14T16:42:53.931Z,0.60
2018-12-14T16:45:56.883Z,0.60
2018-12-14T16:48:59.874Z,0.60
2018-12-14T16:52:02.997Z,0.70
2018-12-14T16:55:07.258Z,0.60
2018-12-14T16:58:10.222Z,0.60
2018-12-14T17:01:13.156Z,0.60
2018-12-14T17:04:16.331Z,0.60
2018-12-14T17:07:19.386Z,0.60
2018-12-14T17:10:22.398Z,0.60
2018-12-14T17:13:25.337Z,0.60
2018-12-14T17:16:28.409Z,0.50
2018-12-14T17:19:31.341Z,0.50
2018-12-14T17:22:34.417Z,0.50
2018-12-14T17:25:37.346Z,0.50
2018-12-14T17:28:40.417Z,0.60
2018-12-14T17:31:43.349Z,0.50
2018-12-14T17:34:46.482Z,0.50
2018-12-14T17:37:51.448Z,0.60
2018-12-14T17:40:54.733Z,0.50
2018-12-14T17:43:57.669Z,0.40
2018-12-14T17:47:00.790Z,0.40
2018-12-14T17:50:04.209Z,0.40
2018-12-14T17:53:07.178Z,0.40
2018-12-14T17:56:10.109Z,0.40
2018-12-14T17:59:13.065Z,0.50
2018-12-14T18:02:16.062Z,0.50
2018-12-14T18:05:19.049Z,0.50
2018-12-14T18:08:21.998Z,0.40
2018-12-14T18:11:25.037Z,0.60
2018-12-14T18:14:27.971Z,0.50
2018-12-14T18:17:30.950Z,0.50
2018-12-14T18:20:33.901Z,0.50
2018-12-14T18:23:36.953Z,0.40
2018-12-14T18:26:40.029Z,0.40
2018-12-14T18:29:43.002Z,0.40
2018-12-14T18:32:46.047Z,0.40
2018-12-14T18:35:49.041Z,0.40
2018-12-14T18:38:51.966Z,0.50
2018-12-14T18:41:54.966Z,0.40
2018-12-14T18:44:57.897Z,0.40
2018-12-14T18:48:00.878Z,0.40
2018-12-14T18:51:03.846Z,0.40
2018-12-14T18:54:06.817Z,0.30
2018-12-14T18:57:09.766Z,0.40
2018-12-14T19:00:12.773Z,0.40
2018-12-14T19:03:15.725Z,0.40
2018-12-14T19:06:18.675Z,0.40
2018-12-14T19:09:21.610Z,0.40
2018-12-14T19:12:24.929Z,0.40
2018-12-14T19:15:27.966Z,0.30
2018-12-14T19:18:30.923Z,0.30
2018-12-14T19:21:33.846Z,0.30
2018-12-14T19:24:36.882Z,0.30
2018-12-14T19:27:39.950Z,0.30
2018-12-14T19:30:42.943Z,0.30
2018-12-14T19:33:46.000Z,0.20
2018-12-14T19:36:48.953Z,0.20
2018-12-14T19:39:51.884Z,0.20
2018-12-14T19:42:55.041Z,0.20
2018-12-14T19:45:57.958Z,0.20
2018-12-14T19:49:00.894Z,0.20
2018-12-14T19:52:04.306Z,0.20
2018-12-14T19:55:07.446Z,0.20
2018-12-14T19:58:10.398Z,0.20
2018-12-14T20:01:13.338Z,0.20
2018-12-14T20:04:16.270Z,0.20
2018-12-14T20:07:19.209Z,0.20
2018-12-14T20:10:22.129Z,0.20
2018-12-14T20:13:25.122Z,0.20
2018-12-14T20:16:28.085Z,0.20
2018-12-14T20:19:31.121Z,0.20
2018-12-14T20:22:34.109Z,0.20
2018-12-14T20:25:37.037Z,0.10
2018-12-14T20:28:39.951Z,0.20
2018-12-14T20:31:42.873Z,0.20
2018-12-14T20:34:45.969Z,0.10
2018-12-14T20:37:49.145Z,0.10
2018-12-14T20:40:52.066Z,0.10
2018-12-14T20:43:55.091Z,0.10
2018-12-14T20:47:00.157Z,0.20
2018-12-14T20:53:36.016Z,0.20
2018-12-14T20:56:40.709Z,0.30
2018-12-14T20:59:43.977Z,0.10
2018-12-14T21:02:48.297Z,0.10
2018-12-14T21:05:51.597Z,0.00
2018-12-14T21:08:54.893Z,0.00
2018-12-14T21:11:59.113Z,0.00
2018-12-14T21:15:03.847Z,0.00
2018-12-14T21:18:07.050Z,0.00
2018-12-14T21:21:10.261Z,0.00
2018-12-14T21:24:13.437Z,0.00
2018-12-14T21:27:16.730Z,0.10
2018-12-14T21:30:20.946Z,0.10
2018-12-14T21:33:24.145Z,0.00
2018-12-14T21:36:27.338Z,0.10
2018-12-14T21:39:33.915Z,0.00
2018-12-14T21:42:37.110Z,0.00
2018-12-14T21:45:40.304Z,0.00
2018-12-14T21:48:43.554Z,0.00
2018-12-14T21:51:46.714Z,0.00
2018-12-14T21:54:50.123Z,0.00
2018-12-14T21:57:53.655Z,0.00
2018-12-14T22:00:56.810Z,-0.10
2018-12-14T22:04:00.018Z,-0.10
2018-12-14T22:07:03.203Z,-0.10
2018-12-14T22:10:07.726Z,-0.10
2018-12-14T22:13:10.916Z,-0.10
2018-12-14T22:16:14.119Z,-0.10
2018-12-14T22:19:17.314Z,-0.10
2018-12-14T22:22:20.517Z,-0.10
2018-12-14T22:25:23.710Z,-0.10
2018-12-14T22:28:26.909Z,-0.10
2018-12-14T22:31:30.094Z,-0.10
2018-12-14T22:34:33.302Z,-0.10
2018-12-14T22:37:37.145Z,-0.10
2018-12-14T22:40:40.310Z,-0.10
2018-12-14T22:43:43.485Z,-0.10
2018-12-14T22:46:46.681Z,-0.10
2018-12-14T22:49:49.982Z,-0.10
2018-12-14T22:52:53.177Z,-0.10
2018-12-14T22:55:56.374Z,-0.10
2018-12-14T22:58:59.566Z,-0.10
2018-12-14T23:02:02.762Z,-0.20
2018-12-14T23:05:07.193Z,-0.20
2018-12-14T23:08:10.383Z,-0.20
2018-12-14T23:11:13.574Z,-0.20
2018-12-14T23:14:16.781Z,-0.20
2018-12-14T23:17:19.966Z,-0.20
2018-12-14T23:20:23.162Z,-0.10
2018-12-14T23:23:26.396Z,-0.10
2018-12-14T23:26:29.753Z,-0.20
2018-12-14T23:29:32.941Z,-0.20
2018-12-14T23:32:36.278Z,-0.30
2018-12-14T23:35:39.454Z,-0.20
2018-12-14T23:38:42.733Z,-0.20
2018-12-14T23:41:45.935Z,-0.10
2018-12-14T23:44:49.166Z,-0.20
2018-12-14T23:47:53.355Z,-0.10
2018-12-14T23:50:56.618Z,-0.20
2018-12-14T23:53:59.745Z,-0.20
2018-12-14T23:57:02.967Z,-0.20
